createdAt,value
2018-10-12T00:03:07.261Z,16.98
2018-10-12T00:08:11.645Z,16.80
2018-10-12T00:13:16.031Z,16.63
2018-10-12T00:18:20.190Z,16.47
2018-10-12T00:23:24.389Z,16.34
2018-10-12T00:28:28.593Z,16.18
2018-10-12T00:33:32.753Z,16.08
2018-10-12T00:38:36.980Z,16.02
2018-10-12T00:43:41.221Z,15.96
2018-10-12T00:48:45.425Z,15.90
2018-10-12T00:53:49.601Z,15.85
2018-10-12T00:58:53.722Z,15.84
2018-10-12T01:03:57.898Z,15.80
2018-10-12T01:09:02.157Z,15.78
2018-10-12T01:14:06.491Z,15.81
2018-10-12T01:19:10.777Z,15.83
2018-10-12T01:24:15.095Z,15.80
2018-10-12T01:29:19.499Z,15.75
2018-10-12T01:34:23.659Z,15.68
2018-10-12T01:39:27.933Z,15.65
2018-10-12T01:44:32.209Z,15.63
2018-10-12T01:49:36.587Z,15.57
2018-10-12T01:54:40.950Z,15.58
2018-10-12T01:59:45.546Z,15.52
2018-10-12T02:04:50.097Z,15.49
2018-10-12T02:09:54.387Z,15.49
2018-10-12T02:14:58.543Z,15.47
2018-10-12T02:20:02.751Z,15.37
2018-10-12T02:25:07.293Z,15.32
2018-10-12T02:30:11.545Z,15.22
2018-10-12T02:35:16.453Z,15.22
2018-10-12T02:40:20.645Z,15.26
2018-10-12T02:45:24.843Z,15.26
2018-10-12T02:50:29.422Z,15.30
2018-10-12T02:55:33.487Z,15.39
2018-10-12T03:00:37.656Z,15.45
2018-10-12T03:05:42.006Z,15.49
2018-10-12T03:10:49.514Z,15.50
2018-10-12T03:15:54.291Z,15.51
2018-10-12T03:21:03.675Z,15.55
2018-10-12T03:26:07.902Z,15.51
2018-10-12T03:31:12.129Z,15.47
2018-10-12T03:36:16.443Z,15.47
2018-10-12T03:41:20.900Z,15.49
2018-10-12T03:46:25.064Z,15.47
2018-10-12T03:51:29.293Z,15.46
2018-10-12T03:56:33.419Z,15.45
2018-10-12T04:01:37.626Z,15.47
2018-10-12T04:06:41.882Z,15.49
2018-10-12T04:11:46.045Z,15.49
2018-10-12T04:16:50.258Z,15.49
2018-10-12T04:21:54.436Z,15.46
2018-10-12T04:26:58.691Z,15.43
2018-10-12T04:32:03.394Z,15.33
2018-10-12T04:37:08.025Z,15.30
2018-10-12T04:42:13.061Z,15.31
2018-10-12T04:47:17.542Z,15.30
2018-10-12T04:52:22.624Z,15.34
2018-10-12T04:57:27.071Z,15.39
2018-10-12T05:02:31.153Z,15.38
2018-10-12T05:07:35.410Z,15.38
2018-10-12T05:12:39.541Z,15.33
2018-10-12T05:17:43.783Z,15.33
2018-10-12T05:22:47.979Z,15.35
2018-10-12T05:27:52.119Z,15.37
2018-10-12T05:32:56.343Z,15.38
2018-10-12T05:38:00.775Z,15.40
2018-10-12T05:43:04.888Z,15.42
2018-10-12T05:48:25.377Z,15.46
2018-10-12T05:53:30.305Z,15.49
2018-10-12T05:58:34.648Z,15.55
2018-10-12T06:03:39.276Z,15.61
2018-10-12T06:08:43.535Z,15.61
2018-10-12T06:13:47.767Z,15.63
2018-10-12T06:18:52.027Z,15.65
2018-10-12T06:23:56.281Z,15.67
2018-10-12T06:29:00.687Z,15.64
2018-10-12T06:34:04.847Z,15.58
2018-10-12T06:39:09.012Z,15.68
2018-10-12T06:44:13.269Z,15.93
2018-10-12T06:49:17.489Z,16.07
2018-10-12T06:54:21.751Z,16.21
2018-10-12T06:59:26.183Z,16.31
2018-10-12T07:04:30.323Z,16.33
2018-10-12T07:09:34.655Z,16.34
2018-10-12T07:14:39.097Z,16.42
2018-10-12T07:19:43.559Z,16.47
2018-10-12T07:24:47.802Z,16.53
2018-10-12T07:29:52.514Z,16.62
2018-10-12T07:34:56.970Z,16.72
2018-10-12T07:40:07.751Z,16.89
2018-10-12T07:45:12.152Z,16.97
2018-10-12T07:50:16.605Z,17.07
2018-10-12T07:55:20.974Z,17.37
2018-10-12T08:00:25.251Z,17.65
2018-10-12T08:05:29.371Z,17.90
2018-10-12T08:10:33.609Z,18.19
2018-10-12T08:15:38.689Z,18.38
2018-10-12T08:20:44.436Z,18.31
2018-10-12T08:25:48.940Z,18.39
2018-10-12T08:30:53.183Z,18.43
2018-10-12T08:35:57.793Z,18.58
2018-10-12T08:41:01.935Z,18.74
2018-10-12T08:46:06.219Z,19.03
2018-10-12T08:51:10.459Z,19.91
2018-10-12T08:56:14.743Z,20.95
2018-10-12T09:01:19.006Z,20.57
2018-10-12T09:06:23.314Z,20.72
2018-10-12T09:11:27.527Z,22.58
2018-10-12T09:16:32.941Z,24.64
2018-10-12T09:21:37.718Z,25.64
2018-10-12T09:26:42.214Z,27.83
2018-10-12T09:31:46.854Z,29.15
2018-10-12T09:36:50.984Z,29.74
2018-10-12T09:41:55.582Z,30.50
2018-10-12T09:47:00.410Z,30.52
2018-10-12T09:52:05.078Z,30.42
2018-10-12T09:57:14.422Z,29.52
2018-10-12T10:02:23.437Z,28.16
2018-10-12T10:07:27.975Z,26.92
2018-10-12T10:12:32.380Z,25.92
2018-10-12T10:17:36.924Z,24.63
2018-10-12T10:22:41.708Z,23.81
2018-10-12T10:27:46.684Z,23.48
2018-10-12T10:32:51.538Z,23.14
2018-10-12T10:37:56.077Z,23.02
2018-10-12T10:43:00.312Z,22.92
2018-10-12T10:48:04.933Z,22.79
2018-10-12T10:53:09.396Z,22.85
2018-10-12T10:58:13.625Z,22.92
2018-10-12T11:03:18.309Z,22.94
2018-10-12T11:08:23.050Z,23.03
2018-10-12T11:13:27.514Z,23.16
2018-10-12T11:18:31.940Z,23.12
2018-10-12T11:23:36.800Z,23.26
2018-10-12T11:28:41.434Z,23.30
2018-10-12T11:33:47.892Z,23.39
2018-10-12T11:38:52.078Z,23.49
2018-10-12T11:43:57.146Z,23.46
2018-10-12T11:49:06.480Z,23.49
2018-10-12T11:54:10.824Z,23.77
2018-10-12T11:59:15.006Z,23.91
2018-10-12T12:04:19.951Z,24.37
2018-10-12T12:09:24.416Z,25.80
2018-10-12T12:14:29.193Z,27.00
2018-10-12T12:19:33.424Z,28.38
2018-10-12T12:24:37.890Z,29.05
2018-10-12T12:29:42.516Z,29.32
2018-10-12T12:34:47.718Z,29.73
2018-10-12T12:39:52.160Z,29.69
2018-10-12T12:44:56.394Z,29.96
2018-10-12T12:50:01.078Z,30.18
2018-10-12T12:55:05.429Z,31.25
2018-10-12T13:00:09.803Z,31.57
2018-10-12T13:05:14.053Z,32.16
2018-10-12T13:10:18.508Z,32.25
2018-10-12T13:15:23.308Z,32.72
2018-10-12T13:20:27.481Z,32.86
2018-10-12T13:25:32.444Z,33.52
2018-10-12T13:30:37.177Z,33.01
2018-10-12T13:35:42.405Z,33.19
2018-10-12T13:40:47.048Z,32.24
2018-10-12T13:45:51.429Z,31.16
2018-10-12T13:50:55.905Z,30.29
2018-10-12T13:56:00.690Z,29.75
2018-10-12T14:01:05.138Z,29.35
2018-10-12T14:06:09.668Z,28.85
2018-10-12T14:11:13.820Z,27.92
2018-10-12T14:16:18.202Z,27.16
2018-10-12T14:21:22.652Z,26.66
2018-10-12T14:26:27.044Z,26.26
2018-10-12T14:31:31.873Z,25.94
2018-10-12T14:36:36.064Z,25.80
2018-10-12T14:41:40.439Z,25.58
2018-10-12T14:46:45.352Z,25.48
2018-10-12T14:51:49.602Z,25.41
2018-10-12T14:56:53.792Z,25.42
2018-10-12T15:01:58.381Z,25.37
2018-10-12T15:07:02.926Z,25.36
2018-10-12T15:12:07.360Z,25.26
2018-10-12T15:17:11.704Z,25.14
2018-10-12T15:22:16.353Z,25.03
2018-10-12T15:27:20.496Z,24.87
2018-10-12T15:32:24.908Z,24.70
2018-10-12T15:37:29.362Z,24.64
2018-10-12T15:42:33.899Z,24.53
2018-10-12T15:47:38.223Z,24.35
2018-10-12T15:52:42.574Z,24.23
2018-10-12T15:57:46.980Z,24.14
2018-10-12T16:02:50.466Z,24.04
2018-10-12T16:07:54.032Z,23.96
2018-10-12T16:12:57.654Z,23.84
2018-10-12T16:18:01.048Z,23.71
2018-10-12T16:23:04.790Z,23.58
2018-10-12T16:28:09.042Z,23.44
2018-10-12T16:33:13.312Z,23.30
2018-10-12T16:38:17.674Z,23.15
2018-10-12T16:43:22.142Z,23.00
2018-10-12T16:48:26.578Z,22.87
2018-10-12T16:53:31.040Z,22.72
2018-10-12T16:58:34.698Z,22.58
2018-10-12T17:03:39.116Z,22.50
2018-10-12T17:08:48.596Z,22.40
2018-10-12T17:13:53.336Z,22.30
2018-10-12T17:18:57.805Z,22.17
2018-10-12T17:24:02.276Z,22.06
2018-10-12T17:29:06.683Z,21.89
2018-10-12T17:34:10.998Z,21.85
2018-10-12T17:39:16.587Z,21.85
2018-10-12T17:44:20.899Z,21.73
2018-10-12T17:49:34.718Z,21.61
2018-10-12T17:54:39.268Z,21.58
2018-10-12T17:59:44.111Z,21.46
2018-10-12T18:04:48.976Z,21.36
2018-10-12T18:09:53.644Z,21.32
2018-10-12T18:14:57.878Z,21.26
2018-10-12T18:20:02.800Z,21.21
2018-10-12T18:25:08.924Z,21.10
2018-10-12T18:30:13.557Z,20.94
2018-10-12T18:35:18.213Z,20.87
2018-10-12T18:40:22.505Z,20.75
2018-10-12T18:45:27.366Z,20.75
2018-10-12T18:50:32.477Z,20.76
2018-10-12T18:55:37.201Z,20.74
2018-10-12T19:00:41.897Z,20.73
2018-10-12T19:05:47.373Z,20.61
2018-10-12T19:10:51.835Z,20.47
2018-10-12T19:15:56.148Z,20.40
2018-10-12T19:21:02.287Z,20.39
2018-10-12T19:26:10.989Z,20.38
2018-10-12T19:31:17.187Z,20.49
2018-10-12T19:36:25.674Z,20.62
2018-10-12T19:41:31.490Z,20.74
2018-10-12T19:46:36.671Z,20.87
2018-10-12T19:51:41.507Z,20.95
2018-10-12T19:56:45.769Z,21.05
2018-10-12T20:01:50.789Z,21.13
2018-10-12T20:06:55.311Z,21.13
2018-10-12T20:11:59.642Z,21.09
2018-10-12T20:17:04.078Z,21.04
2018-10-12T20:22:10.768Z,21.00
2018-10-12T20:27:15.604Z,20.97
2018-10-12T20:32:20.510Z,20.90
2018-10-12T20:37:26.232Z,20.82
2018-10-12T20:42:32.513Z,20.75
2018-10-12T20:47:37.308Z,20.68
2018-10-12T20:52:41.663Z,20.62
2018-10-12T20:57:57.060Z,20.55
2018-10-12T21:03:02.944Z,20.48
2018-10-12T21:08:14.391Z,20.40
2018-10-12T21:13:19.685Z,20.36
2018-10-12T21:18:24.789Z,20.29
2018-10-12T21:23:29.866Z,20.24
2018-10-12T21:28:34.525Z,20.19
2018-10-12T21:33:40.293Z,20.13
2018-10-12T21:38:55.965Z,20.06
2018-10-12T21:44:00.731Z,20.00
2018-10-12T21:49:05.159Z,19.96
2018-10-12T21:54:09.711Z,19.88
2018-10-12T21:59:13.841Z,19.82
2018-10-12T22:04:18.788Z,19.75
2018-10-12T22:09:22.989Z,19.60
2018-10-12T22:14:27.263Z,19.51
2018-10-12T22:19:31.789Z,19.47
2018-10-12T22:24:36.020Z,19.46
2018-10-12T22:29:40.630Z,19.43
2018-10-12T22:34:45.008Z,19.41
2018-10-12T22:39:49.661Z,19.34
2018-10-12T22:44:54.031Z,19.32
2018-10-12T22:49:58.330Z,19.28
2018-10-12T22:55:02.617Z,19.25
2018-10-12T23:00:11.861Z,19.22
2018-10-12T23:05:16.515Z,19.18
2018-10-12T23:10:21.011Z,19.16
2018-10-12T23:15:25.449Z,19.08
2018-10-12T23:20:30.133Z,19.01
2018-10-12T23:25:34.676Z,19.00
2018-10-12T23:30:40.408Z,18.98
2018-10-12T23:35:45.800Z,18.83
2018-10-12T23:40:52.865Z,18.51
2018-10-12T23:45:57.910Z,18.51
2018-10-12T23:51:07.545Z,18.51
2018-10-12T23:56:13.031Z,18.49
